Time;durP1;ratioP1;P1;durP2;ratioP2;P2;SDS_P1;SDS_P2;PMS_P1;PMS_P2;Temp;Humidity;BMP_temperature;BMP_pressure;BME280_temperature;BME280_humidity;BME280_pressure;Samples;Min_cycle;Max_cycle;Signal;HPM_P1;HPM_P2
2022/05/27 00:02:10;;;;;;;28.30;5.22;;;13.30;99.90;;;;;;5073201;28;20040;-68
2022/05/27 00:04:36;;;;;;;24.83;4.32;;;14.30;99.90;;;;;;5072876;28;20044;-69
2022/05/27 00:07:03;;;;;;;16.92;3.65;;;14.00;99.90;;;;;;5072943;28;20087;-70
2022/05/27 00:09:29;;;;;;;26.35;5.57;;;13.70;99.90;;;;;;5072954;28;20474;-68
2022/05/27 00:11:54;;;;;;;18.15;3.90;;;14.80;99.90;;;;;;5072639;28;20123;-71
2022/05/27 00:14:20;;;;;;;19.65;5.05;;;13.40;99.90;;;;;;5072985;28;20477;-69
2022/05/27 00:16:46;;;;;;;17.52;4.05;;;13.20;99.90;;;;;;5072790;28;20051;-68
2022/05/27 00:19:12;;;;;;;27.35;4.50;;;13.60;99.90;;;;;;5072866;28;20045;-68
2022/05/27 00:21:38;;;;;;;23.30;4.15;;;13.30;99.90;;;;;;5072706;28;20393;-68
2022/05/27 00:24:04;;;;;;;19.70;3.85;;;13.30;99.90;;;;;;5078632;28;20054;-69
2022/05/27 00:26:30;;;;;;;;;;;13.30;99.90;;;;;;5092175;28;20093;-68
2022/05/27 00:28:55;;;;;;;13.68;3.40;;;13.00;99.90;;;;;;5092844;28;19923;-69
2022/05/27 00:31:21;;;;;;;29.95;4.85;;;13.30;99.90;;;;;;5092715;28;20063;-68
2022/05/27 00:33:47;;;;;;;19.60;4.45;;;13.10;99.90;;;;;;5092829;28;20135;-68
2022/05/27 00:36:14;;;;;;;20.30;4.43;;;13.10;99.90;;;;;;5092854;28;20052;-68
2022/05/27 00:38:41;;;;;;;20.33;3.88;;;13.20;99.90;;;;;;5092595;28;20492;-68
2022/05/27 00:41:08;;;;;;;18.27;2.95;;;13.10;99.90;;;;;;5091313;28;20093;-69
2022/05/27 00:43:34;;;;;;;20.15;3.28;;;13.10;99.90;;;;;;5092613;28;20043;-68
2022/05/27 00:46:05;;;;;;;26.02;3.28;;;13.00;99.90;;;;;;5092735;28;20048;-68
2022/05/27 00:48:33;;;;;;;30.63;3.47;;;13.00;99.90;;;;;;5092515;28;20131;-66
2022/05/27 00:50:59;;;;;;;15.82;3.72;;;13.20;99.90;;;;;;5092497;28;20052;-69
2022/05/27 00:53:38;;;;;;;;;;;13.10;99.90;;;;;;5092790;28;20055;-71
2022/05/27 00:56:06;;;;;;;14.95;2.92;;;13.00;99.90;;;;;;5092564;28;19924;-70
2022/05/27 00:58:43;;;;;;;19.40;3.58;;;13.00;99.90;;;;;;5092573;28;20127;-69
2022/05/27 01:01:10;;;;;;;19.45;5.15;;;13.00;99.90;;;;;;5092385;28;20047;-68
2022/05/27 01:03:36;;;;;;;15.90;3.33;;;12.80;99.90;;;;;;5092314;28;20040;-69
2022/05/27 01:06:02;;;;;;;16.52;4.10;;;12.70;99.90;;;;;;5092315;28;20044;-69
2022/05/27 01:08:29;;;;;;;19.73;3.10;;;12.80;99.90;;;;;;5092474;28;20044;-70
2022/05/27 01:11:09;;;;;;;16.52;3.28;;;13.00;99.90;;;;;;5092437;28;20056;-68
2022/05/27 01:13:47;;;;;;;11.23;2.65;;;12.70;99.90;;;;;;5092280;28;20044;-69
2022/05/27 01:16:31;;;;;;;15.80;3.78;;;12.60;99.90;;;;;;5092237;28;20474;-69
2022/05/27 01:22:15;;;;;;;9.50;2.42;;;12.70;99.90;;;;;;5092248;28;20147;-68
2022/05/27 01:25:02;;;;;;;11.35;2.50;;;12.90;99.90;;;;;;5085856;28;20275;-68
2022/05/27 01:27:51;;;;;;;11.93;2.13;;;13.00;99.90;;;;;;5071922;28;20084;-68
2022/05/27 01:30:22;;;;;;;11.52;2.67;;;12.70;99.90;;;;;;5071899;28;20302;-67
2022/05/27 01:33:19;;;;;;;12.38;2.60;;;12.80;99.90;;;;;;5071926;28;20048;-68
2022/05/27 01:36:10;;;;;;;14.40;2.95;;;12.90;99.90;;;;;;5071785;28;20048;-67
2022/05/27 01:38:45;;;;;;;14.32;3.15;;;12.80;99.90;;;;;;5075973;28;20052;-67
2022/05/27 01:41:14;;;;;;;15.43;3.15;;;12.50;99.90;;;;;;5075896;28;20404;-68
2022/05/27 01:43:48;;;;;;;20.83;3.40;;;12.70;99.90;;;;;;5092490;28;20040;-68
2022/05/27 01:46:17;;;;;;;16.45;3.13;;;13.00;99.90;;;;;;5096115;28;20083;-70
2022/05/27 01:49:04;;;;;;;14.25;2.90;;;12.40;99.90;;;;;;5095771;28;20054;-67
2022/05/27 01:51:59;;;;;;;15.60;2.65;;;12.10;99.90;;;;;;5095629;28;20048;-68
2022/05/27 01:55:11;;;;;;;13.95;3.05;;;12.60;99.90;;;;;;5085127;28;20056;-68
2022/05/27 01:58:00;;;;;;;11.95;2.33;;;12.50;99.90;;;;;;5057382;28;20052;-67
2022/05/27 02:00:28;;;;;;;10.50;2.60;;;12.50;99.90;;;;;;5094308;28;20040;-67
2022/05/27 02:03:17;;;;;;;13.43;2.58;;;12.50;99.90;;;;;;5095781;28;20052;-70
2022/05/27 02:05:50;;;;;;;11.25;2.90;;;12.80;99.90;;;;;;5095495;28;20499;-67
2022/05/27 02:08:18;;;;;;;13.45;2.22;;;12.40;99.90;;;;;;5095572;28;20054;-67
2022/05/27 02:10:53;;;;;;;12.10;2.28;;;12.60;99.90;;;;;;5095302;28;20460;-67
2022/05/27 02:13:50;;;;;;;12.30;3.08;;;12.50;99.90;;;;;;5095440;28;20084;-69
2022/05/27 02:16:25;;;;;;;10.93;2.60;;;12.40;99.90;;;;;;5093357;28;20393;-66
2022/05/27 02:19:26;;;;;;;9.95;2.33;;;12.30;99.90;;;;;;5094003;28;20408;-67
2022/05/27 02:22:09;;;;;;;11.05;2.50;;;12.10;99.90;;;;;;5095351;28;20135;-66
2022/05/27 02:25:00;;;;;;;17.30;3.00;;;11.90;99.90;;;;;;5095263;28;20097;-67
2022/05/27 02:27:36;;;;;;;11.52;2.35;;;11.80;99.90;;;;;;5095067;28;20050;-67
2022/05/27 02:30:06;;;;;;;13.82;3.00;;;12.50;99.90;;;;;;5091299;28;20064;-66
2022/05/27 02:32:37;;;;;;;10.82;2.65;;;11.90;99.90;;;;;;5074746;28;20411;-66
2022/05/27 02:35:17;;;;;;;15.50;3.13;;;11.90;99.90;;;;;;5074725;28;20047;-66
2022/05/27 02:37:46;;;;;;;14.70;3.13;;;11.80;99.90;;;;;;5074709;28;20400;-66
2022/05/27 02:40:14;;;;;;;17.98;2.78;;;11.50;99.90;;;;;;5074536;28;20052;-66
2022/05/27 02:43:10;;;;;;;12.00;3.03;;;11.60;99.90;;;;;;5074836;28;20048;-68
2022/05/27 02:45:47;;;;;;;12.70;3.67;;;11.70;99.90;;;;;;5074517;28;20127;-66
2022/05/27 02:48:18;;;;;;;13.20;2.70;;;11.40;99.90;;;;;;5073397;28;20170;-66
2022/05/27 02:51:04;;;;;;;13.82;2.95;;;11.50;99.90;;;;;;5073423;28;20052;-66
2022/05/27 02:53:29;;;;;;;21.02;2.55;;;11.40;99.90;;;;;;5074375;28;20097;-67
2022/05/27 02:56:12;;;;;;;11.73;2.53;;;11.40;99.90;;;;;;5074441;28;20131;-66
2022/05/27 02:58:38;;;;;;;18.65;3.45;;;11.40;99.90;;;;;;5074264;28;20094;-67
2022/05/27 03:01:04;;;;;;;15.85;2.85;;;11.30;99.90;;;;;;5074371;28;20446;-66
2022/05/27 03:03:30;;;;;;;24.35;3.60;;;11.20;99.90;;;;;;5074403;28;20064;-67
2022/05/27 03:06:21;;;;;;;15.82;3.75;;;11.80;99.90;;;;;;5074039;28;20485;-67
2022/05/27 03:09:18;;;;;;;19.65;3.33;;;11.00;99.90;;;;;;5074152;28;20086;-66
2022/05/27 03:12:08;;;;;;;17.27;3.75;;;11.10;99.90;;;;;;5073875;28;20443;-66
2022/05/27 03:14:58;;;;;;;19.15;3.40;;;10.90;99.90;;;;;;5074056;28;20044;-66
2022/05/27 03:17:30;;;;;;;12.45;2.75;;;10.90;99.90;;;;;;5072934;28;20048;-66
2022/05/27 03:20:33;;;;;;;8.35;2.67;;;10.80;99.90;;;;;;5073797;28;20488;-66
2022/05/27 03:23:13;;;;;;;22.00;3.40;;;10.90;99.90;;;;;;5073819;28;20071;-66
2022/05/27 03:26:02;;;;;;;14.30;3.03;;;10.90;99.90;;;;;;5073871;28;20616;-70
2022/05/27 03:28:56;;;;;;;17.75;3.20;;;11.20;99.90;;;;;;5073770;28;20045;-66
2022/05/27 03:31:29;;;;;;;14.32;3.63;;;10.60;99.90;;;;;;5073657;28;20056;-67
2022/05/27 03:33:59;;;;;;;13.98;3.00;;;10.80;99.90;;;;;;5073689;28;20063;-68
2022/05/27 03:36:34;;;;;;;14.05;3.03;;;12.10;99.90;;;;;;5073338;28;20060;-68
2022/05/27 03:39:21;;;;;;;19.95;3.08;;;11.40;99.90;;;;;;5073811;28;20156;-67
2022/05/27 03:42:08;;;;;;;18.10;3.25;;;11.10;99.90;;;;;;5073386;28;20048;-66
2022/05/27 03:44:34;;;;;;;14.63;2.72;;;12.20;99.90;;;;;;5073262;28;20044;-66
2022/05/27 03:47:00;;;;;;;16.27;3.00;;;12.20;99.90;;;;;;5073498;28;20074;-70
2022/05/27 03:49:27;;;;;;;16.15;3.42;;;11.20;99.90;;;;;;5073409;28;20049;-66
2022/05/27 03:51:58;;;;;;;21.00;3.42;;;11.40;99.90;;;;;;5073299;28;20047;-65
2022/05/27 03:54:24;;;;;;;17.45;2.75;;;11.90;99.90;;;;;;5073212;28;20059;-66
2022/05/27 03:56:50;;;;;;;11.32;2.80;;;12.10;99.90;;;;;;5073201;28;20144;-67
2022/05/27 03:59:17;;;;;;;25.63;4.25;;;11.70;99.90;;;;;;5072694;28;20141;-66
2022/05/27 04:01:46;;;;;;;15.85;3.00;;;11.80;99.90;;;;;;5071880;28;20084;-67
2022/05/27 04:04:15;;;;;;;14.70;3.08;;;11.70;99.90;;;;;;5073137;28;20051;-66
2022/05/27 04:06:41;;;;;;;21.95;3.25;;;11.50;99.90;;;;;;5072965;28;20145;-66
2022/05/27 04:09:07;;;;;;;12.65;2.60;;;11.60;99.90;;;;;;5073004;28;20075;-65
2022/05/27 04:11:33;;;;;;;;;;;11.90;99.90;;;;;;5073100;28;20155;-68
2022/05/27 04:14:00;;;;;;;18.45;3.83;;;11.70;99.90;;;;;;5072696;28;20331;-65
2022/05/27 04:16:25;;;;;;;18.92;2.75;;;12.10;99.90;;;;;;5072795;28;20048;-66
2022/05/27 04:18:51;;;;;;;20.17;3.92;;;11.80;99.90;;;;;;5072918;28;20048;-66
2022/05/27 04:21:18;;;;;;;15.90;3.47;;;11.70;99.90;;;;;;5072651;28;20044;-66
2022/05/27 04:23:43;;;;;;;12.98;3.17;;;11.90;99.90;;;;;;5071389;28;20051;-66
2022/05/27 04:26:09;;;;;;;17.17;3.63;;;13.10;99.90;;;;;;5072593;28;20471;-67
2022/05/27 04:28:35;;;;;;;18.17;3.10;;;12.00;99.90;;;;;;5072358;28;20056;-68
2022/05/27 04:31:02;;;;;;;18.48;3.30;;;12.10;99.90;;;;;;5072682;28;20125;-69
2022/05/27 04:33:28;;;;;;;15.43;3.03;;;12.10;99.90;;;;;;5072457;28;20052;-66
2022/05/27 04:35:58;;;;;;;13.88;2.85;;;12.80;99.90;;;;;;5072673;28;20070;-66
2022/05/27 04:38:25;;;;;;;14.73;3.13;;;12.20;99.90;;;;;;5072424;28;20052;-69
2022/05/27 04:40:50;;;;;;;18.95;4.13;;;12.50;99.90;;;;;;5083093;28;20058;-74
2022/05/27 04:43:17;;;;;;;16.73;3.33;;;12.80;99.90;;;;;;5092575;28;20036;-68
2022/05/27 04:45:43;;;;;;;14.30;3.42;;;12.40;99.90;;;;;;5092732;28;20055;-68
2022/05/27 04:48:09;;;;;;;21.20;3.67;;;13.40;99.90;;;;;;5092679;28;20055;-67
2022/05/27 04:50:35;;;;;;;21.38;3.53;;;12.40;99.90;;;;;;5092532;28;20059;-66
2022/05/27 04:53:02;;;;;;;18.73;3.50;;;14.70;99.90;;;;;;5092475;28;20113;-66
2022/05/27 04:55:30;;;;;;;19.90;4.00;;;10.90;99.90;;;;;;5092274;28;20488;-66
2022/05/27 04:57:57;;;;;;;11.80;3.38;;;12.20;99.90;;;;;;5092716;28;20052;-67
2022/05/27 05:00:27;;;;;;;17.85;2.97;;;12.90;99.90;;;;;;5092327;28;20051;-68
2022/05/27 05:02:54;;;;;;;15.50;3.15;;;12.30;99.90;;;;;;5092570;28;20086;-67
2022/05/27 05:05:22;;;;;;;18.48;3.30;;;12.10;99.90;;;;;;5092448;28;20048;-66
2022/05/27 05:07:51;;;;;;;19.40;3.70;;;12.70;99.90;;;;;;5092270;28;20097;-67
2022/05/27 05:10:21;;;;;;;17.08;3.85;;;12.00;99.90;;;;;;5092202;28;20393;-67
2022/05/27 05:12:48;;;;;;;18.67;3.38;;;12.10;99.90;;;;;;5095283;28;20091;-67
2022/05/27 05:15:14;;;;;;;21.05;4.05;;;12.50;99.90;;;;;;5096630;28;20055;-67
2022/05/27 05:17:40;;;;;;;15.77;3.78;;;13.10;99.90;;;;;;5096422;28;20039;-68
2022/05/27 05:20:06;;;;;;;12.68;3.30;;;12.60;99.90;;;;;;5096392;28;20048;-66
2022/05/27 05:22:32;;;;;;;14.77;3.95;;;12.30;99.90;;;;;;5096253;28;20086;-67
2022/05/27 05:24:58;;;;;;;16.80;3.92;;;12.40;99.90;;;;;;5096455;28;20079;-66
2022/05/27 05:27:28;;;;;;;14.80;3.95;;;13.50;99.90;;;;;;5096526;28;20087;-65
2022/05/27 05:29:55;;;;;;;17.70;4.20;;;13.10;99.90;;;;;;5096411;28;20055;-66
2022/05/27 05:32:22;;;;;;;22.58;3.60;;;12.20;99.90;;;;;;5095991;28;20140;-69
2022/05/27 05:34:48;;;;;;;;;;;12.50;99.90;;;;;;5096543;28;20076;-66
2022/05/27 05:37:15;;;;;;;24.38;4.35;;;12.30;99.90;;;;;;5096040;28;20295;-66
2022/05/27 05:39:40;;;;;;;19.45;3.97;;;13.20;99.90;;;;;;5095910;28;20480;-67
2022/05/27 05:42:07;;;;;;;12.88;3.50;;;12.50;99.90;;;;;;5096193;28;20097;-71
2022/05/27 05:44:34;;;;;;;22.88;3.90;;;12.50;99.90;;;;;;5094823;28;20174;-65
2022/05/27 05:47:00;;;;;;;;;;;12.40;99.90;;;;;;5095154;28;20044;-65
2022/05/27 05:49:26;;;;;;;20.33;3.97;;;12.40;99.90;;;;;;5095901;28;20470;-67
2022/05/27 05:51:54;;;;;;;16.35;3.20;;;12.30;99.90;;;;;;5094631;28;20124;-67
2022/05/27 05:54:21;;;;;;;19.27;3.42;;;12.70;99.90;;;;;;5096044;28;20036;-65
2022/05/27 05:56:47;;;;;;;16.40;3.03;;;12.60;99.90;;;;;;5095658;28;20158;-70
2022/05/27 05:59:14;;;;;;;19.80;3.60;;;12.70;99.90;;;;;;5095740;28;20048;-66
2022/05/27 06:01:41;;;;;;;18.05;3.88;;;12.90;99.90;;;;;;5095700;28;20145;-66
2022/05/27 06:04:07;;;;;;;15.18;3.35;;;12.90;99.90;;;;;;5095517;28;20055;-68
2022/05/27 06:06:33;;;;;;;18.02;3.95;;;13.50;99.90;;;;;;5094244;28;20044;-69
2022/05/27 06:08:59;;;;;;;21.17;3.80;;;12.60;99.90;;;;;;5095614;28;20087;-66
2022/05/27 06:11:24;;;;;;;18.30;2.83;;;12.90;99.90;;;;;;5095638;28;20084;-66
2022/05/27 06:13:50;;;;;;;15.25;3.05;;;12.80;99.90;;;;;;5095243;28;20048;-67
2022/05/27 06:16:16;;;;;;;18.40;2.60;;;12.30;99.90;;;;;;5095388;28;20044;-66
2022/05/27 06:18:42;;;;;;;18.27;3.13;;;13.00;99.90;;;;;;5095263;28;20059;-67
2022/05/27 06:21:08;;;;;;;21.60;3.15;;;12.80;99.90;;;;;;5095220;28;20044;-66
2022/05/27 06:23:34;;;;;;;;;;;12.80;99.90;;;;;;5095785;28;20065;-67
2022/05/27 06:26:09;;;;;;;20.17;3.30;;;12.50;99.90;;;;;;5095269;28;19925;-67
2022/05/27 06:36:50;;;;;;;15.90;2.92;;;12.90;99.90;;;;;;5095087;28;20549;-68
2022/05/27 06:39:17;;;;;;;19.13;3.80;;;12.80;99.90;;;;;;5094910;28;20044;-65
2022/05/27 06:41:43;;;;;;;15.15;3.30;;;12.70;99.90;;;;;;5094896;28;20491;-68
2022/05/27 06:44:09;;;;;;;35.30;4.47;;;12.70;99.90;;;;;;5094814;28;20039;-66
2022/05/27 06:46:36;;;;;;;17.25;3.75;;;12.90;99.90;;;;;;5094514;28;20115;-64
2022/05/27 06:49:03;;;;;;;20.27;3.97;;;13.10;99.90;;;;;;5094309;28;20048;-66
2022/05/27 06:51:29;;;;;;;21.27;3.70;;;13.10;99.90;;;;;;5094398;28;20039;-65
2022/05/27 06:53:55;;;;;;;25.90;4.13;;;13.10;99.90;;;;;;5094263;28;20055;-67
2022/05/27 06:56:21;;;;;;;13.10;3.00;;;13.00;99.90;;;;;;5094144;28;20048;-68
2022/05/27 06:58:47;;;;;;;;;;;13.50;99.90;;;;;;5095033;28;20056;-66
2022/05/27 07:01:13;;;;;;;11.32;2.95;;;13.90;99.90;;;;;;5093986;28;19965;-66
2022/05/27 07:03:39;;;;;;;;;;;13.10;99.90;;;;;;5094686;28;20036;-64
2022/05/27 07:06:06;;;;;;;14.65;3.00;;;13.20;99.90;;;;;;5093273;28;19934;-70
2022/05/27 07:08:31;;;;;;;20.40;4.10;;;13.40;99.90;;;;;;5094446;28;20055;-68
2022/05/27 07:10:57;;;;;;;21.45;3.67;;;13.40;99.90;;;;;;5094250;28;20055;-68
2022/05/27 07:13:23;;;;;;;15.68;3.17;;;13.30;99.90;;;;;;5094397;28;20048;-71
2022/05/27 07:15:48;;;;;;;17.63;3.78;;;13.30;99.90;;;;;;5082777;28;20052;-69
2022/05/27 07:18:14;;;;;;;17.85;3.72;;;13.40;99.90;;;;;;5074177;28;20041;-69
2022/05/27 07:20:44;;;;;;;25.80;4.38;;;13.30;99.90;;;;;;5086715;28;20040;-70
2022/05/27 07:23:10;;;;;;;21.00;3.72;;;13.40;99.90;;;;;;5093755;28;20035;-68
2022/05/27 07:25:36;;;;;;;22.50;4.18;;;13.20;99.90;;;;;;5093859;28;20044;-70
2022/05/27 07:28:05;;;;;;;17.40;4.35;;;13.80;99.90;;;;;;5094840;28;20947;-68
2022/05/27 07:30:30;;;;;;;18.60;3.95;;;12.90;99.90;;;;;;5093626;28;20059;-68
2022/05/27 07:32:56;;;;;;;19.00;4.15;;;13.40;99.90;;;;;;5093529;28;20048;-67
2022/05/27 07:35:22;;;;;;;16.63;3.78;;;13.50;99.90;;;;;;5086191;28;20075;-73
2022/05/27 07:37:48;;;;;;;24.73;3.53;;;13.50;99.90;;;;;;5086813;28;20083;-72
2022/05/27 07:40:14;;;;;;;18.67;3.67;;;13.30;99.90;;;;;;5092125;28;20075;-69
2022/05/27 07:42:40;;;;;;;;;;;13.10;99.90;;;;;;5092837;28;20572;-74
2022/05/27 07:45:07;;;;;;;21.15;3.47;;;13.90;99.90;;;;;;5091800;28;19926;-69
2022/05/27 07:47:33;;;;;;;16.77;4.00;;;13.30;99.90;;;;;;5092457;28;20060;-71
2022/05/27 07:49:59;;;;;;;20.02;3.65;;;13.90;99.90;;;;;;5092364;28;20044;-66
2022/05/27 07:52:25;;;;;;;19.67;3.40;;;15.30;99.90;;;;;;5091899;28;20036;-65
2022/05/27 07:54:51;;;;;;;17.65;2.90;;;13.80;99.90;;;;;;5091304;28;20044;-68
2022/05/27 07:57:27;;;;;;;20.10;3.47;;;13.70;99.90;;;;;;5092427;28;20056;-70
2022/05/27 08:00:00;;;;;;;23.45;3.40;;;13.60;99.90;;;;;;5088301;28;20058;-70
2022/05/27 08:02:26;;;;;;;22.15;4.25;;;13.20;99.90;;;;;;5071002;28;20432;-70
2022/05/27 08:04:52;;;;;;;19.40;3.35;;;13.60;99.90;;;;;;5071547;28;20057;-66
2022/05/27 08:07:18;;;;;;;21.48;3.67;;;13.30;99.90;;;;;;5072880;28;20118;-73
2022/05/27 08:09:44;;;;;;;24.25;3.95;;;13.50;99.90;;;;;;5072773;28;20055;-69
2022/05/27 08:12:10;;;;;;;16.23;3.53;;;13.70;99.90;;;;;;5073164;28;20127;-68
2022/05/27 08:14:36;;;;;;;;;;;13.50;99.90;;;;;;5072141;28;20052;-68
2022/05/27 08:17:02;;;;;;;14.65;2.88;;;13.60;99.90;;;;;;5072881;28;19936;-69
2022/05/27 08:19:28;;;;;;;18.80;3.42;;;13.70;99.90;;;;;;5072697;28;20401;-69
2022/05/27 08:21:54;;;;;;;15.38;3.28;;;14.10;99.90;;;;;;5072617;28;20052;-73
2022/05/27 08:24:20;;;;;;;23.40;3.85;;;13.80;99.90;;;;;;5072578;28;20502;-69
2022/05/27 08:26:47;;;;;;;16.38;3.63;;;14.00;99.90;;;;;;5072576;28;20040;-70
2022/05/27 08:29:13;;;;;;;19.55;3.70;;;13.20;99.90;;;;;;5072500;28;20056;-68
2022/05/27 08:31:39;;;;;;;16.92;3.70;;;13.70;99.90;;;;;;5072245;28;20059;-67
2022/05/27 08:39:38;;;;;;;27.50;3.80;;;13.90;99.90;;;;;;5099838;28;20066;-66
2022/05/27 08:42:41;;;;;;;25.45;4.28;;;13.80;99.90;;;;;;5092333;28;20059;-70
2022/05/27 08:45:20;;;;;;;16.10;4.05;;;13.70;99.90;;;;;;5092351;28;20048;-66
2022/05/27 08:48:01;;;;;;;21.27;3.92;;;13.60;99.90;;;;;;5084184;28;20137;-68
2022/05/27 08:50:32;;;;;;;14.95;3.75;;;14.10;99.90;;;;;;5087643;28;20075;-68
2022/05/27 08:53:12;;;;;;;17.77;3.58;;;13.90;99.90;;;;;;5090577;28;20051;-69
2022/05/27 09:01:31;;;;;;;20.02;4.07;;;13.60;99.90;;;;;;5087421;28;20525;-69
2022/05/27 09:04:09;;;;;;;14.45;3.25;;;13.90;99.90;;;;;;5090450;28;20040;-66
2022/05/27 09:06:51;;;;;;;21.88;3.53;;;13.90;99.90;;;;;;5091108;28;20484;-69
2022/05/27 09:09:21;;;;;;;20.58;3.60;;;14.10;99.90;;;;;;5091262;28;20105;-69
2022/05/27 09:12:24;;;;;;;19.55;3.58;;;13.80;99.90;;;;;;5089560;28;20059;-69
2022/05/27 09:15:07;;;;;;;19.83;3.95;;;13.20;99.90;;;;;;5090314;28;20052;-66
2022/05/27 09:17:56;;;;;;;20.35;4.03;;;13.20;99.90;;;;;;5090210;28;20438;-68
2022/05/27 09:20:40;;;;;;;21.02;3.53;;;13.60;99.90;;;;;;5091429;28;20060;-68
2022/05/27 09:23:29;;;;;;;17.67;3.42;;;13.80;99.90;;;;;;5092133;28;20442;-68
2022/05/27 09:26:10;;;;;;;19.67;3.47;;;13.90;99.90;;;;;;5092262;28;20506;-67
2022/05/27 09:28:41;;;;;;;16.38;3.78;;;13.80;99.90;;;;;;5092123;28;20408;-68
2022/05/27 09:31:11;;;;;;;19.30;3.75;;;13.80;99.90;;;;;;5092031;28;20052;-66
2022/05/27 09:33:37;;;;;;;21.42;3.50;;;13.60;99.90;;;;;;5091988;28;20047;-68
2022/05/27 09:36:08;;;;;;;21.58;3.78;;;13.60;99.90;;;;;;5092170;28;20048;-66
2022/05/27 09:38:37;;;;;;;22.55;4.45;;;13.70;99.90;;;;;;5092120;28;20098;-68
2022/05/27 09:41:14;;;;;;;19.65;3.72;;;13.80;99.90;;;;;;5090772;28;20044;-67
2022/05/27 09:43:46;;;;;;;16.95;3.58;;;13.60;99.90;;;;;;5092245;28;20105;-68
2022/05/27 09:46:18;;;;;;;23.27;4.03;;;14.10;99.90;;;;;;5092170;28;20457;-67
2022/05/27 09:48:44;;;;;;;16.65;3.92;;;13.70;99.90;;;;;;5092161;28;20044;-66
2022/05/27 09:51:12;;;;;;;20.27;3.35;;;14.40;99.90;;;;;;5085883;28;20055;-69
2022/05/27 09:53:53;;;;;;;14.63;3.03;;;15.10;99.90;;;;;;5080447;28;20072;-68
2022/05/27 09:56:38;;;;;;;15.65;3.30;;;13.80;99.90;;;;;;5085289;28;20091;-67
2022/05/27 09:59:21;;;;;;;18.98;3.67;;;14.10;99.90;;;;;;5094450;28;20097;-66
2022/05/27 10:01:47;;;;;;;21.75;4.28;;;14.50;99.90;;;;;;5092511;28;20036;-68
2022/05/27 10:04:15;;;;;;;23.80;4.13;;;14.30;99.90;;;;;;5094973;28;20100;-68
2022/05/27 10:06:42;;;;;;;24.02;3.75;;;14.40;99.90;;;;;;5095282;28;20047;-66
2022/05/27 10:09:29;;;;;;;21.30;3.60;;;14.30;99.90;;;;;;5092416;28;20040;-68
2022/05/27 10:11:57;;;;;;;19.15;4.00;;;14.50;99.90;;;;;;5086726;28;20060;-69
2022/05/27 10:14:29;;;;;;;27.85;3.65;;;14.30;99.90;;;;;;5094249;28;20048;-72
2022/05/27 10:17:14;;;;;;;20.63;3.17;;;14.40;99.90;;;;;;5094049;28;20044;-68
2022/05/27 10:19:42;;;;;;;14.55;3.42;;;14.40;99.90;;;;;;5093885;28;20195;-68
2022/05/27 10:22:20;;;;;;;17.42;3.72;;;14.30;99.90;;;;;;5093750;28;20063;-67
2022/05/27 10:24:57;;;;;;;23.35;4.03;;;14.50;99.90;;;;;;5094355;28;20048;-69
2022/05/27 10:27:32;;;;;;;20.20;3.42;;;15.40;99.90;;;;;;5089849;28;20082;-68
2022/05/27 10:30:00;;;;;;;15.10;3.30;;;14.50;99.90;;;;;;5077566;28;20040;-65
2022/05/27 10:32:38;;;;;;;18.60;3.42;;;14.30;99.90;;;;;;5091469;28;20154;-68
2022/05/27 10:35:27;;;;;;;19.90;3.38;;;13.90;99.90;;;;;;5091874;28;20396;-68
2022/05/27 10:38:10;;;;;;;27.15;5.00;;;14.10;99.90;;;;;;5088277;28;20672;-67
2022/05/27 10:40:36;;;;;;;23.20;3.45;;;14.00;99.90;;;;;;5095095;28;20109;-68
2022/05/27 10:43:44;;;;;;;17.95;3.33;;;14.30;99.90;;;;;;5093749;28;20047;-66
2022/05/27 10:46:15;;;;;;;15.98;4.05;;;14.50;99.90;;;;;;5094716;28;20055;-68
2022/05/27 10:48:51;;;;;;;18.77;3.75;;;14.60;99.90;;;;;;5095009;28;20400;-68
2022/05/27 10:51:19;;;;;;;20.75;3.72;;;14.10;99.90;;;;;;5094834;28;20093;-66
2022/05/27 10:54:06;;;;;;;16.13;3.17;;;14.50;99.90;;;;;;5094665;28;20147;-69
2022/05/27 10:56:41;;;;;;;15.88;3.10;;;14.50;99.90;;;;;;5094525;28;20393;-65
2022/05/27 11:02:15;;;;;;;15.93;3.40;;;14.70;99.90;;;;;;5094597;28;20127;-67
2022/05/27 11:05:04;;;;;;;18.20;3.20;;;14.60;99.90;;;;;;5094358;28;20059;-67
2022/05/27 11:07:38;;;;;;;14.95;3.05;;;15.00;99.90;;;;;;5094763;28;20055;-67
2022/05/27 11:10:29;;;;;;;14.82;3.50;;;15.10;99.90;;;;;;5092380;28;20491;-69
2022/05/27 11:15:51;;;;;;;22.67;3.67;;;14.30;99.90;;;;;;5094399;28;20416;-67
2022/05/27 11:18:25;;;;;;;15.88;3.67;;;14.10;99.90;;;;;;5094197;28;20044;-66
2022/05/27 11:20:57;;;;;;;25.73;3.38;;;14.20;99.90;;;;;;5094303;28;20130;-67
2022/05/27 11:24:03;;;;;;;20.60;4.10;;;14.40;99.90;;;;;;5093947;28;20433;-66
2022/05/27 11:26:54;;;;;;;15.25;3.88;;;14.80;99.90;;;;;;5059835;28;20067;-65
2022/05/27 11:29:50;;;;;;;14.88;3.92;;;14.70;99.90;;;;;;5094067;28;20433;-67
2022/05/27 11:32:40;;;;;;;13.70;3.45;;;14.50;99.90;;;;;;5094010;28;20106;-68
2022/05/27 11:35:35;;;;;;;16.77;3.50;;;14.40;99.90;;;;;;5093977;28;20127;-68
2022/05/27 11:38:01;;;;;;;18.25;3.75;;;14.10;99.90;;;;;;5093821;28;20084;-67
2022/05/27 11:40:47;;;;;;;17.95;4.15;;;13.80;99.90;;;;;;5093618;28;20087;-66
2022/05/27 11:43:46;;;;;;;20.20;4.15;;;14.30;99.90;;;;;;5093860;28;20044;-66
2022/05/27 11:46:52;;;;;;;19.60;3.33;;;14.20;99.90;;;;;;5093623;28;20052;-66
2022/05/27 11:49:33;;;;;;;14.07;3.50;;;14.40;99.90;;;;;;5092233;28;20048;-64
2022/05/27 11:52:19;;;;;;;17.60;3.42;;;14.00;99.90;;;;;;5093516;28;20056;-68
2022/05/27 11:55:03;;;;;;;16.35;3.60;;;14.70;99.90;;;;;;5093476;28;20561;-67
2022/05/27 11:57:49;;;;;;;16.35;3.40;;;16.10;99.90;;;;;;5093444;28;20420;-68
2022/05/27 12:00:18;;;;;;;21.25;3.80;;;14.90;99.90;;;;;;5092346;28;20044;-66
2022/05/27 12:03:17;;;;;;;23.23;4.50;;;14.80;99.90;;;;;;5092362;28;20044;-68
2022/05/27 12:05:50;;;;;;;16.80;3.33;;;14.90;99.90;;;;;;5056430;28;20095;-64
2022/05/27 12:08:56;;;;;;;20.00;4.25;;;14.90;99.90;;;;;;5093382;28;20101;-68
2022/05/27 12:11:33;;;;;;;19.17;3.80;;;15.50;99.90;;;;;;5092865;28;20059;-65
2022/05/27 12:14:13;;;;;;;20.30;4.18;;;13.90;99.90;;;;;;5093175;28;20036;-68
2022/05/27 12:16:42;;;;;;;16.70;3.55;;;14.50;99.90;;;;;;5093327;28;20540;-67
2022/05/27 12:19:13;;;;;;;18.08;3.70;;;14.90;99.90;;;;;;5093138;28;20123;-70
2022/05/27 12:22:00;;;;;;;17.00;3.25;;;14.70;99.90;;;;;;5093046;28;20097;-68
2022/05/27 12:24:45;;;;;;;22.55;3.92;;;14.40;99.90;;;;;;5093127;28;20124;-66
2022/05/27 12:27:14;;;;;;;19.15;3.63;;;14.10;99.90;;;;;;5092537;28;20412;-67
2022/05/27 12:29:42;;;;;;;20.42;3.72;;;13.90;99.90;;;;;;5092631;28;20130;-68
2022/05/27 12:32:10;;;;;;;25.73;5.30;;;14.00;99.90;;;;;;5092464;28;20500;-66
2022/05/27 12:34:46;;;;;;;21.73;3.67;;;14.70;99.90;;;;;;5092666;28;20468;-67
2022/05/27 12:37:26;;;;;;;18.58;3.78;;;14.70;99.90;;;;;;5092757;28;20255;-69
2022/05/27 12:40:18;;;;;;;20.05;3.90;;;14.60;99.90;;;;;;5092695;28;20048;-67
2022/05/27 12:42:44;;;;;;;20.20;3.85;;;14.80;99.90;;;;;;5092401;28;20047;-66
2022/05/27 12:45:20;;;;;;;;;;;15.30;99.90;;;;;;5093060;28;20040;-64
2022/05/27 12:47:51;;;;;;;24.23;5.07;;;15.10;99.90;;;;;;5092731;28;20303;-65
2022/05/27 12:50:25;;;;;;;23.13;3.88;;;15.00;99.90;;;;;;5092531;28;20048;-68
2022/05/27 12:52:56;;;;;;;17.25;3.45;;;14.50;99.90;;;;;;5092492;28;20044;-66
2022/05/27 13:00:55;;;;;;;22.25;4.90;;;14.60;99.90;;;;;;5092454;28;20094;-69
2022/05/27 13:01:42;;;;;;;47.15;24.15;;;14.50;99.90;;;;;;5092389;28;20553;-67
2022/05/27 13:04:27;;;;;;;20.27;3.67;;;14.60;99.90;;;;;;5078402;28;20393;-67
2022/05/27 13:07:05;;;;;;;17.95;3.15;;;14.40;99.90;;;;;;5092298;28;20384;-66
2022/05/27 13:09:37;;;;;;;18.48;3.20;;;14.70;99.90;;;;;;5092371;28;20050;-67
2022/05/27 13:12:04;;;;;;;27.13;4.70;;;14.50;99.90;;;;;;5091714;28;20051;-65
2022/05/27 13:14:49;;;;;;;24.95;4.47;;;14.40;99.90;;;;;;5092375;28;20047;-67
2022/05/27 13:17:31;;;;;;;21.27;4.00;;;14.70;99.90;;;;;;5090963;28;20076;-67
2022/05/27 13:20:08;;;;;;;17.15;3.38;;;15.40;99.90;;;;;;5090379;28;20136;-66
2022/05/27 13:22:59;;;;;;;16.08;3.42;;;15.10;99.90;;;;;;5081247;28;20542;-66
2022/05/27 13:25:34;;;;;;;18.95;2.92;;;14.90;99.90;;;;;;5072041;28;20092;-67
2022/05/27 13:28:04;;;;;;;16.15;3.25;;;15.20;99.90;;;;;;5073217;28;20041;-65
2022/05/27 13:30:48;;;;;;;20.90;3.63;;;15.50;99.90;;;;;;5091911;28;20062;-67
2022/05/27 13:33:17;;;;;;;19.40;3.17;;;14.90;99.90;;;;;;5089533;28;20050;-70
2022/05/27 13:35:46;;;;;;;19.90;3.67;;;14.80;99.90;;;;;;5094439;28;20102;-66
2022/05/27 13:38:19;;;;;;;16.90;3.50;;;14.50;99.90;;;;;;5091431;28;20067;-68
2022/05/27 13:40:46;;;;;;;24.15;4.55;;;14.70;99.90;;;;;;5095295;28;20048;-71
2022/05/27 13:43:17;;;;;;;22.85;3.28;;;14.80;99.90;;;;;;5095654;28;20040;-68
2022/05/27 13:45:56;;;;;;;21.98;3.60;;;14.80;99.90;;;;;;5108916;28;20452;-71